sensor_id;sensor_type;location;lat;lon;timestamp;temperature;humidity
1800;DHT22;919;48.274;12.292;2023-04-15T00:01:35;6.20;99.90
1800;DHT22;919;48.274;12.292;2023-04-15T00:04:02;6.10;99.90
1800;DHT22;919;48.274;12.292;2023-04-15T00:06:30;6.10;99.90
1800;DHT22;919;48.274;12.292;2023-04-15T00:08:57;6.20;99.90
1800;DHT22;919;48.274;12.292;2023-04-15T00:11:24;6.20;99.90
1800;DHT22;919;48.274;12.292;2023-04-15T00:13:51;6.10;99.90
1800;DHT22;919;48.274;12.292;2023-04-15T00:16:17;6.10;99.90
1800;DHT22;919;48.274;12.292;2023-04-15T00:18:44;6.10;99.90
1800;DHT22;919;48.274;12.292;2023-04-15T00:21:11;6.10;99.90
1800;DHT22;919;48.274;12.292;2023-04-15T00:23:39;6.10;99.90
1800;DHT22;919;48.274;12.292;2023-04-15T00:26:06;6.20;99.90
1800;DHT22;919;48.274;12.292;2023-04-15T00:28:33;6.20;99.90
1800;DHT22;919;48.274;12.292;2023-04-15T00:30:59;6.20;99.90
1800;DHT22;919;48.274;12.292;2023-04-15T00:33:26;6.20;99.90
1800;DHT22;919;48.274;12.292;2023-04-15T00:35:53;6.20;99.90
1800;DHT22;919;48.274;12.292;2023-04-15T00:38:20;6.10;99.90
1800;DHT22;919;48.274;12.292;2023-04-15T00:40:48;6.20;99.90
1800;DHT22;919;48.274;12.292;2023-04-15T00:43:14;6.10;99.90
1800;DHT22;919;48.274;12.292;2023-04-15T00:45:42;6.10;99.90
1800;DHT22;919;48.274;12.292;2023-04-15T00:48:09;6.10;99.90
1800;DHT22;919;48.274;12.292;2023-04-15T00:50:36;6.10;99.90
1800;DHT22;919;48.274;12.292;2023-04-15T00:53:03;6.10;99.90
1800;DHT22;919;48.274;12.292;2023-04-15T00:55:30;6.00;99.90
1800;DHT22;919;48.274;12.292;2023-04-15T00:57:58;6.10;99.90
1800;DHT22;919;48.274;12.292;2023-04-15T01:00:25;6.10;99.90
1800;DHT22;919;48.274;12.292;2023-04-15T01:02:52;6.10;99.90
1800;DHT22;919;48.274;12.292;2023-04-15T01:05:19;6.10;99.90
1800;DHT22;919;48.274;12.292;2023-04-15T01:07:46;6.10;99.90
1800;DHT22;919;48.274;12.292;2023-04-15T01:10:13;6.10;99.90
1800;DHT22;919;48.274;12.292;2023-04-15T01:12:40;6.10;99.90
1800;DHT22;919;48.274;12.292;2023-04-15T01:15:09;6.00;99.90
1800;DHT22;919;48.274;12.292;2023-04-15T01:17:36;6.00;99.90
1800;DHT22;919;48.274;12.292;2023-04-15T01:20:03;6.10;99.90
1800;DHT22;919;48.274;12.292;2023-04-15T01:22:32;6.00;99.90
1800;DHT22;919;48.274;12.292;2023-04-15T01:25:03;6.10;99.90
1800;DHT22;919;48.274;12.292;2023-04-15T01:27:34;6.10;99.90
1800;DHT22;919;48.274;12.292;2023-04-15T01:30:01;6.00;99.90
1800;DHT22;919;48.274;12.292;2023-04-15T01:32:29;6.10;99.90
1800;DHT22;919;48.274;12.292;2023-04-15T01:34:56;6.10;99.90
1800;DHT22;919;48.274;12.292;2023-04-15T01:37:23;6.00;99.90
1800;DHT22;919;48.274;12.292;2023-04-15T01:39:50;6.00;99.90
1800;DHT22;919;48.274;12.292;2023-04-15T01:42:17;6.00;99.90
1800;DHT22;919;48.274;12.292;2023-04-15T01:44:45;6.00;99.90
1800;DHT22;919;48.274;12.292;2023-04-15T01:47:12;6.00;99.90
1800;DHT22;919;48.274;12.292;2023-04-15T01:49:38;6.00;99.90
1800;DHT22;919;48.274;12.292;2023-04-15T01:52:06;6.00;99.90
1800;DHT22;919;48.274;12.292;2023-04-15T01:54:33;6.00;99.90
1800;DHT22;919;48.274;12.292;2023-04-15T01:57:00;6.00;99.90
1800;DHT22;919;48.274;12.292;2023-04-15T01:59:29;6.00;99.90
1800;DHT22;919;48.274;12.292;2023-04-15T02:01:57;6.00;99.90
1800;DHT22;919;48.274;12.292;2023-04-15T02:04:24;6.00;99.90
1800;DHT22;919;48.274;12.292;2023-04-15T02:06:52;6.10;99.90
1800;DHT22;919;48.274;12.292;2023-04-15T02:09:19;6.10;99.90
1800;DHT22;919;48.274;12.292;2023-04-15T02:11:45;6.10;99.90
1800;DHT22;919;48.274;12.292;2023-04-15T02:14:12;6.10;99.90
1800;DHT22;919;48.274;12.292;2023-04-15T02:16:39;6.10;99.90
1800;DHT22;919;48.274;12.292;2023-04-15T02:19:07;6.20;99.90
1800;DHT22;919;48.274;12.292;2023-04-15T02:21:34;6.20;99.90
1800;DHT22;919;48.274;12.292;2023-04-15T02:24:00;6.10;99.90
1800;DHT22;919;48.274;12.292;2023-04-15T02:26:28;6.10;99.90
1800;DHT22;919;48.274;12.292;2023-04-15T02:28:57;6.10;99.90
1800;DHT22;919;48.274;12.292;2023-04-15T02:31:24;6.10;99.90
1800;DHT22;919;48.274;12.292;2023-04-15T02:33:50;6.10;99.90
1800;DHT22;919;48.274;12.292;2023-04-15T02:36:19;6.10;99.90
1800;DHT22;919;48.274;12.292;2023-04-15T02:38:46;6.20;99.90
1800;DHT22;919;48.274;12.292;2023-04-15T02:41:13;6.10;99.90
1800;DHT22;919;48.274;12.292;2023-04-15T02:43:39;6.10;99.90
1800;DHT22;919;48.274;12.292;2023-04-15T02:46:06;6.10;99.90
1800;DHT22;919;48.274;12.292;2023-04-15T02:48:33;6.10;99.90
1800;DHT22;919;48.274;12.292;2023-04-15T02:51:13;6.10;99.90
1800;DHT22;919;48.274;12.292;2023-04-15T02:53:42;6.20;99.90
1800;DHT22;919;48.274;12.292;2023-04-15T02:56:09;6.20;99.90
1800;DHT22;919;48.274;12.292;2023-04-15T02:58:36;6.20;99.90
1800;DHT22;919;48.274;12.292;2023-04-15T03:01:03;6.10;99.90
1800;DHT22;919;48.274;12.292;2023-04-15T03:03:30;6.10;99.90
1800;DHT22;919;48.274;12.292;2023-04-15T03:05:56;6.10;99.90
1800;DHT22;919;48.274;12.292;2023-04-15T03:08:23;6.10;99.90
1800;DHT22;919;48.274;12.292;2023-04-15T03:10:51;6.10;99.90
1800;DHT22;919;48.274;12.292;2023-04-15T03:13:19;6.10;99.90
1800;DHT22;919;48.274;12.292;2023-04-15T03:15:46;6.10;99.90
1800;DHT22;919;48.274;12.292;2023-04-15T03:18:12;6.10;99.90
1800;DHT22;919;48.274;12.292;2023-04-15T03:20:40;6.10;99.90
1800;DHT22;919;48.274;12.292;2023-04-15T03:23:06;6.10;99.90
1800;DHT22;919;48.274;12.292;2023-04-15T03:25:33;6.20;99.90
1800;DHT22;919;48.274;12.292;2023-04-15T03:28:03;6.10;99.90
1800;DHT22;919;48.274;12.292;2023-04-15T03:30:30;6.10;99.90
1800;DHT22;919;48.274;12.292;2023-04-15T03:32:56;6.00;99.90
1800;DHT22;919;48.274;12.292;2023-04-15T03:35:23;6.00;99.90
1800;DHT22;919;48.274;12.292;2023-04-15T03:37:50;6.10;99.90
1800;DHT22;919;48.274;12.292;2023-04-15T03:40:17;6.10;99.90
1800;DHT22;919;48.274;12.292;2023-04-15T03:42:43;6.00;99.90
1800;DHT22;919;48.274;12.292;2023-04-15T03:45:12;6.00;99.90
1800;DHT22;919;48.274;12.292;2023-04-15T03:47:38;6.00;99.90
1800;DHT22;919;48.274;12.292;2023-04-15T03:50:06;6.00;99.90
1800;DHT22;919;48.274;12.292;2023-04-15T03:52:33;6.00;99.90
1800;DHT22;919;48.274;12.292;2023-04-15T03:55:00;6.10;99.90
1800;DHT22;919;48.274;12.292;2023-04-15T03:57:27;6.10;99.90
1800;DHT22;919;48.274;12.292;2023-04-15T03:59:53;6.10;99.90
1800;DHT22;919;48.274;12.292;2023-04-15T04:02:21;6.10;99.90
1800;DHT22;919;48.274;12.292;2023-04-15T04:04:48;6.10;99.90
1800;DHT22;919;48.274;12.292;2023-04-15T04:07:15;6.00;99.90
1800;DHT22;919;48.274;12.292;2023-04-15T04:09:42;6.00;99.90
1800;DHT22;919;48.274;12.292;2023-04-15T04:12:08;6.10;99.90
1800;DHT22;919;48.274;12.292;2023-04-15T04:14:35;6.10;99.90
1800;DHT22;919;48.274;12.292;2023-04-15T04:17:02;6.10;99.90
1800;DHT22;919;48.274;12.292;2023-04-15T04:19:30;6.10;99.90
1800;DHT22;919;48.274;12.292;2023-04-15T04:21:57;6.10;99.90
1800;DHT22;919;48.274;12.292;2023-04-15T04:24:23;6.10;99.90
1800;DHT22;919;48.274;12.292;2023-04-15T04:26:50;6.10;99.90
1800;DHT22;919;48.274;12.292;2023-04-15T04:29:17;6.10;99.90
1800;DHT22;919;48.274;12.292;2023-04-15T04:31:44;6.00;99.90
1800;DHT22;919;48.274;12.292;2023-04-15T04:34:13;6.00;99.90
1800;DHT22;919;48.274;12.292;2023-04-15T04:36:41;6.10;99.90
1800;DHT22;919;48.274;12.292;2023-04-15T04:39:07;6.10;99.90
1800;DHT22;919;48.274;12.292;2023-04-15T04:41:34;6.10;99.90
1800;DHT22;919;48.274;12.292;2023-04-15T04:44:01;6.10;99.90
1800;DHT22;919;48.274;12.292;2023-04-15T04:46:28;6.10;99.90
1800;DHT22;919;48.274;12.292;2023-04-15T04:48:54;6.10;99.90
1800;DHT22;919;48.274;12.292;2023-04-15T04:51:21;6.20;99.90
1800;DHT22;919;48.274;12.292;2023-04-15T04:53:49;6.10;99.90
1800;DHT22;919;48.274;12.292;2023-04-15T04:56:16;6.10;99.90
1800;DHT22;919;48.274;12.292;2023-04-15T04:58:43;6.10;99.90
1800;DHT22;919;48.274;12.292;2023-04-15T05:01:10;6.10;99.90
1800;DHT22;919;48.274;12.292;2023-04-15T05:03:37;6.10;99.90
1800;DHT22;919;48.274;12.292;2023-04-15T05:06:04;6.10;99.90
1800;DHT22;919;48.274;12.292;2023-04-15T05:08:33;6.20;99.90
1800;DHT22;919;48.274;12.292;2023-04-15T05:11:01;6.20;99.90
1800;DHT22;919;48.274;12.292;2023-04-15T05:13:28;6.20;99.90
1800;DHT22;919;48.274;12.292;2023-04-15T05:15:55;6.30;99.90
1800;DHT22;919;48.274;12.292;2023-04-15T05:18:22;6.20;99.90
1800;DHT22;919;48.274;12.292;2023-04-15T05:20:48;6.20;99.90
1800;DHT22;919;48.274;12.292;2023-04-15T05:23:15;6.20;99.90
1800;DHT22;919;48.274;12.292;2023-04-15T05:25:42;6.30;99.90
1800;DHT22;919;48.274;12.292;2023-04-15T05:28:11;6.30;99.90
1800;DHT22;919;48.274;12.292;2023-04-15T05:30:38;6.30;99.90
1800;DHT22;919;48.274;12.292;2023-04-15T05:33:05;6.30;99.90
1800;DHT22;919;48.274;12.292;2023-04-15T05:35:32;6.40;99.90
1800;DHT22;919;48.274;12.292;2023-04-15T05:37:58;6.30;99.90
1800;DHT22;919;48.274;12.292;2023-04-15T05:40:25;6.30;99.90
1800;DHT22;919;48.274;12.292;2023-04-15T05:42:52;6.30;99.90
1800;DHT22;919;48.274;12.292;2023-04-15T05:45:20;6.30;99.90
1800;DHT22;919;48.274;12.292;2023-04-15T05:47:47;6.30;99.90
1800;DHT22;919;48.274;12.292;2023-04-15T05:50:15;6.20;99.90
1800;DHT22;919;48.274;12.292;2023-04-15T05:52:42;6.30;99.90
1800;DHT22;919;48.274;12.292;2023-04-15T05:55:10;6.30;99.90
1800;DHT22;919;48.274;12.292;2023-04-15T05:57:37;6.30;99.90
1800;DHT22;919;48.274;12.292;2023-04-15T06:00:05;6.30;99.90
1800;DHT22;919;48.274;12.292;2023-04-15T06:02:33;6.30;99.90
1800;DHT22;919;48.274;12.292;2023-04-15T06:04:59;6.30;99.90
1800;DHT22;919;48.274;12.292;2023-04-15T06:07:26;6.30;99.90
1800;DHT22;919;48.274;12.292;2023-04-15T06:09:53;6.30;99.90
1800;DHT22;919;48.274;12.292;2023-04-15T06:12:20;6.40;99.90
1800;DHT22;919;48.274;12.292;2023-04-15T06:14:46;6.40;99.90
1800;DHT22;919;48.274;12.292;2023-04-15T06:17:13;6.40;99.90
1800;DHT22;919;48.274;12.292;2023-04-15T06:19:44;6.40;99.90
1800;DHT22;919;48.274;12.292;2023-04-15T06:22:10;6.40;99.90
1800;DHT22;919;48.274;12.292;2023-04-15T06:24:37;6.40;99.90
1800;DHT22;919;48.274;12.292;2023-04-15T06:27:04;6.40;99.90
1800;DHT22;919;48.274;12.292;2023-04-15T06:29:30;6.40;99.90
1800;DHT22;919;48.274;12.292;2023-04-15T06:31:57;6.40;99.90
1800;DHT22;919;48.274;12.292;2023-04-15T06:34:24;6.40;99.90
1800;DHT22;919;48.274;12.292;2023-04-15T06:36:52;6.40;99.90
1800;DHT22;919;48.274;12.292;2023-04-15T06:39:19;6.50;99.90
1800;DHT22;919;48.274;12.292;2023-04-15T06:41:45;6.50;99.90
1800;DHT22;919;48.274;12.292;2023-04-15T06:44:12;6.50;99.90
1800;DHT22;919;48.274;12.292;2023-04-15T06:46:39;6.50;99.90
1800;DHT22;919;48.274;12.292;2023-04-15T06:49:05;6.50;99.90
1800;DHT22;919;48.274;12.292;2023-04-15T06:51:34;6.50;99.90
1800;DHT22;919;48.274;12.292;2023-04-15T06:54:02;6.50;99.90
1800;DHT22;919;48.274;12.292;2023-04-15T06:56:30;6.50;99.90
1800;DHT22;919;48.274;12.292;2023-04-15T06:58:57;6.60;99.90
1800;DHT22;919;48.274;12.292;2023-04-15T07:01:24;6.60;99.90
1800;DHT22;919;48.274;12.292;2023-04-15T07:03:51;6.60;99.90
1800;DHT22;919;48.274;12.292;2023-04-15T07:06:17;6.60;99.90
1800;DHT22;919;48.274;12.292;2023-04-15T07:08:44;6.60;99.90
1800;DHT22;919;48.274;12.292;2023-04-15T07:11:12;6.60;99.90
1800;DHT22;919;48.274;12.292;2023-04-15T07:13:39;6.70;99.90
1800;DHT22;919;48.274;12.292;2023-04-15T07:16:06;6.70;99.90
1800;DHT22;919;48.274;12.292;2023-04-15T07:18:33;6.70;99.90
1800;DHT22;919;48.274;12.292;2023-04-15T07:21:00;6.80;99.90
1800;DHT22;919;48.274;12.292;2023-04-15T07:23:27;6.70;99.90
1800;DHT22;919;48.274;12.292;2023-04-15T07:25:53;6.70;99.90
1800;DHT22;919;48.274;12.292;2023-04-15T07:28:22;6.70;99.90
1800;DHT22;919;48.274;12.292;2023-04-15T07:30:49;6.70;99.90
1800;DHT22;919;48.274;12.292;2023-04-15T07:33:16;6.70;99.90
1800;DHT22;919;48.274;12.292;2023-04-15T07:35:42;6.70;99.90
1800;DHT22;919;48.274;12.292;2023-04-15T07:38:09;6.70;99.90
1800;DHT22;919;48.274;12.292;2023-04-15T07:40:37;6.80;99.90
1800;DHT22;919;48.274;12.292;2023-04-15T07:43:04;6.80;99.90
1800;DHT22;919;48.274;12.292;2023-04-15T07:45:32;6.80;99.90
1800;DHT22;919;48.274;12.292;2023-04-15T07:48:00;6.80;99.90
1800;DHT22;919;48.274;12.292;2023-04-15T07:50:27;6.80;99.90
1800;DHT22;919;48.274;12.292;2023-04-15T07:52:54;6.80;99.90
1800;DHT22;919;48.274;12.292;2023-04-15T07:55:22;6.90;99.90
1800;DHT22;919;48.274;12.292;2023-04-15T07:57:48;6.90;99.90
1800;DHT22;919;48.274;12.292;2023-04-15T08:00:15;7.00;99.90
1800;DHT22;919;48.274;12.292;2023-04-15T08:02:44;7.10;99.90
1800;DHT22;919;48.274;12.292;2023-04-15T08:05:11;7.10;99.90
1800;DHT22;919;48.274;12.292;2023-04-15T08:07:38;7.10;99.90
1800;DHT22;919;48.274;12.292;2023-04-15T08:10:06;7.10;99.90
1800;DHT22;919;48.274;12.292;2023-04-15T08:12:32;7.10;99.90
1800;DHT22;919;48.274;12.292;2023-04-15T08:14:59;7.10;99.90
1800;DHT22;919;48.274;12.292;2023-04-15T08:17:26;7.10;99.90
1800;DHT22;919;48.274;12.292;2023-04-15T08:19:54;7.20;99.90
1800;DHT22;919;48.274;12.292;2023-04-15T08:22:21;7.20;99.90
1800;DHT22;919;48.274;12.292;2023-04-15T08:24:48;7.20;99.90
1800;DHT22;919;48.274;12.292;2023-04-15T08:27:15;7.20;99.90
1800;DHT22;919;48.274;12.292;2023-04-15T08:29:42;7.30;99.90
1800;DHT22;919;48.274;12.292;2023-04-15T08:32:10;7.30;99.90
1800;DHT22;919;48.274;12.292;2023-04-15T08:34:36;7.40;99.90
1800;DHT22;919;48.274;12.292;2023-04-15T08:37:04;7.40;99.90
1800;DHT22;919;48.274;12.292;2023-04-15T08:39:31;7.40;99.90
1800;DHT22;919;48.274;12.292;2023-04-15T08:42:00;7.50;99.90
1800;DHT22;919;48.274;12.292;2023-04-15T08:44:29;7.40;99.90
1800;DHT22;919;48.274;12.292;2023-04-15T08:47:00;7.40;99.90
1800;DHT22;919;48.274;12.292;2023-04-15T08:49:28;7.40;99.90
1800;DHT22;919;48.274;12.292;2023-04-15T08:51:57;7.40;99.90
1800;DHT22;919;48.274;12.292;2023-04-15T08:54:25;7.40;99.90
1800;DHT22;919;48.274;12.292;2023-04-15T08:56:52;7.40;99.90
1800;DHT22;919;48.274;12.292;2023-04-15T08:59:20;7.30;99.90
1800;DHT22;919;48.274;12.292;2023-04-15T09:01:47;7.30;99.90
1800;DHT22;919;48.274;12.292;2023-04-15T09:04:16;7.20;99.90
1800;DHT22;919;48.274;12.292;2023-04-15T09:06:42;7.20;99.90
1800;DHT22;919;48.274;12.292;2023-04-15T09:09:11;7.30;99.90
1800;DHT22;919;48.274;12.292;2023-04-15T09:11:39;7.30;99.90
1800;DHT22;919;48.274;12.292;2023-04-15T09:14:06;7.30;99.90
1800;DHT22;919;48.274;12.292;2023-04-15T09:16:58;7.30;99.90
1800;DHT22;919;48.274;12.292;2023-04-15T09:19:25;7.30;99.90
1800;DHT22;919;48.274;12.292;2023-04-15T09:21:53;7.40;99.90
1800;DHT22;919;48.274;12.292;2023-04-15T09:24:21;7.40;99.90
1800;DHT22;919;48.274;12.292;2023-04-15T09:26:51;7.40;99.90
1800;DHT22;919;48.274;12.292;2023-04-15T09:29:18;7.50;99.90
1800;DHT22;919;48.274;12.292;2023-04-15T09:31:45;7.50;99.90
1800;DHT22;919;48.274;12.292;2023-04-15T09:34:12;7.60;99.90
1800;DHT22;919;48.274;12.292;2023-04-15T09:36:52;7.70;99.90
1800;DHT22;919;48.274;12.292;2023-04-15T09:39:19;7.80;99.90
1800;DHT22;919;48.274;12.292;2023-04-15T09:41:46;7.90;99.90
1800;DHT22;919;48.274;12.292;2023-04-15T09:44:23;8.00;99.90
1800;DHT22;919;48.274;12.292;2023-04-15T09:46:50;8.00;99.90
1800;DHT22;919;48.274;12.292;2023-04-15T09:49:17;8.00;99.90
1800;DHT22;919;48.274;12.292;2023-04-15T09:51:43;8.00;99.90
1800;DHT22;919;48.274;12.292;2023-04-15T09:54:10;8.00;99.90
1800;DHT22;919;48.274;12.292;2023-04-15T09:56:38;8.00;99.90
1800;DHT22;919;48.274;12.292;2023-04-15T09:59:07;8.10;99.90
1800;DHT22;919;48.274;12.292;2023-04-15T10:01:35;8.20;99.90
1800;DHT22;919;48.274;12.292;2023-04-15T10:04:03;8.20;99.90
1800;DHT22;919;48.274;12.292;2023-04-15T10:06:30;8.20;99.90
1800;DHT22;919;48.274;12.292;2023-04-15T10:08:57;8.30;99.90
1800;DHT22;919;48.274;12.292;2023-04-15T10:11:27;8.30;99.90
1800;DHT22;919;48.274;12.292;2023-04-15T10:13:55;8.20;99.90
1800;DHT22;919;48.274;12.292;2023-04-15T10:16:26;8.20;99.90
1800;DHT22;919;48.274;12.292;2023-04-15T10:18:55;8.20;99.90
1800;DHT22;919;48.274;12.292;2023-04-15T10:21:23;8.30;99.90
1800;DHT22;919;48.274;12.292;2023-04-15T10:23:50;8.30;99.90
1800;DHT22;919;48.274;12.292;2023-04-15T10:26:17;8.30;99.90
1800;DHT22;919;48.274;12.292;2023-04-15T10:28:44;8.40;99.90
1800;DHT22;919;48.274;12.292;2023-04-15T10:31:13;8.30;99.90
1800;DHT22;919;48.274;12.292;2023-04-15T10:33:40;8.30;99.90
1800;DHT22;919;48.274;12.292;2023-04-15T10:36:09;8.30;99.90
1800;DHT22;919;48.274;12.292;2023-04-15T10:38:38;8.30;99.90
1800;DHT22;919;48.274;12.292;2023-04-15T10:41:15;8.30;99.90
1800;DHT22;919;48.274;12.292;2023-04-15T10:43:48;8.30;99.90
1800;DHT22;919;48.274;12.292;2023-04-15T10:46:17;8.20;99.90
1800;DHT22;919;48.274;12.292;2023-04-15T10:48:49;8.20;99.90
1800;DHT22;919;48.274;12.292;2023-04-15T10:51:26;8.30;99.90
1800;DHT22;919;48.274;12.292;2023-04-15T10:53:56;8.30;99.90
1800;DHT22;919;48.274;12.292;2023-04-15T10:56:23;8.30;99.90
1800;DHT22;919;48.274;12.292;2023-04-15T10:58:50;8.30;99.90
1800;DHT22;919;48.274;12.292;2023-04-15T11:01:19;8.20;99.90
1800;DHT22;919;48.274;12.292;2023-04-15T11:03:47;8.40;99.90
1800;DHT22;919;48.274;12.292;2023-04-15T11:06:16;8.40;99.90
1800;DHT22;919;48.274;12.292;2023-04-15T11:08:54;8.40;99.90
1800;DHT22;919;48.274;12.292;2023-04-15T11:11:23;8.40;99.90
1800;DHT22;919;48.274;12.292;2023-04-15T11:13:50;8.40;99.90
1800;DHT22;919;48.274;12.292;2023-04-15T11:16:18;8.40;99.90
1800;DHT22;919;48.274;12.292;2023-04-15T11:18:53;8.40;99.90
1800;DHT22;919;48.274;12.292;2023-04-15T11:21:23;8.40;99.90
1800;DHT22;919;48.274;12.292;2023-04-15T11:23:50;8.50;99.90
1800;DHT22;919;48.274;12.292;2023-04-15T11:26:17;8.50;99.90
1800;DHT22;919;48.274;12.292;2023-04-15T11:28:44;8.50;99.90
1800;DHT22;919;48.274;12.292;2023-04-15T11:31:13;8.50;99.90
1800;DHT22;919;48.274;12.292;2023-04-15T11:33:53;8.50;99.90
1800;DHT22;919;48.274;12.292;2023-04-15T11:36:23;8.50;99.90
1800;DHT22;919;48.274;12.292;2023-04-15T11:38:51;8.60;99.90
1800;DHT22;919;48.274;12.292;2023-04-15T11:41:19;8.60;99.90
1800;DHT22;919;48.274;12.292;2023-04-15T11:43:46;8.60;99.90
1800;DHT22;919;48.274;12.292;2023-04-15T11:46:13;8.70;99.90
1800;DHT22;919;48.274;12.292;2023-04-15T11:48:42;8.70;99.90
1800;DHT22;919;48.274;12.292;2023-04-15T11:51:10;8.80;99.90
1800;DHT22;919;48.274;12.292;2023-04-15T11:53:41;8.80;99.90
1800;DHT22;919;48.274;12.292;2023-04-15T11:56:10;8.90;99.90
1800;DHT22;919;48.274;12.292;2023-04-15T11:58:37;8.90;99.90
1800;DHT22;919;48.274;12.292;2023-04-15T12:01:05;8.80;99.90
1800;DHT22;919;48.274;12.292;2023-04-15T12:03:37;8.80;99.90
1800;DHT22;919;48.274;12.292;2023-04-15T12:06:06;8.80;99.90
1800;DHT22;919;48.274;12.292;2023-04-15T12:08:58;8.80;99.90
1800;DHT22;919;48.274;12.292;2023-04-15T12:11:30;8.80;99.90
1800;DHT22;919;48.274;12.292;2023-04-15T12:13:58;8.80;99.90
1800;DHT22;919;48.274;12.292;2023-04-15T12:16:28;8.80;99.90
1800;DHT22;919;48.274;12.292;2023-04-15T12:18:56;8.80;99.90
1800;DHT22;919;48.274;12.292;2023-04-15T12:21:25;8.70;99.90
1800;DHT22;919;48.274;12.292;2023-04-15T12:23:54;8.60;99.90
1800;DHT22;919;48.274;12.292;2023-04-15T12:26:25;8.60;99.90
1800;DHT22;919;48.274;12.292;2023-04-15T12:28:53;8.60;99.90
1800;DHT22;919;48.274;12.292;2023-04-15T12:31:20;8.60;99.90
1800;DHT22;919;48.274;12.292;2023-04-15T12:33:48;8.60;99.90
1800;DHT22;919;48.274;12.292;2023-04-15T12:36:14;8.60;99.90
1800;DHT22;919;48.274;12.292;2023-04-15T12:38:41;8.60;99.90
1800;DHT22;919;48.274;12.292;2023-04-15T12:41:09;8.50;99.90
1800;DHT22;919;48.274;12.292;2023-04-15T12:43:36;8.50;99.90
1800;DHT22;919;48.274;12.292;2023-04-15T12:46:03;8.50;99.90
1800;DHT22;919;48.274;12.292;2023-04-15T12:48:31;8.40;99.90
1800;DHT22;919;48.274;12.292;2023-04-15T12:50:58;8.40;99.90
1800;DHT22;919;48.274;12.292;2023-04-15T12:53:25;8.40;99.90
1800;DHT22;919;48.274;12.292;2023-04-15T12:55:53;8.50;99.90
1800;DHT22;919;48.274;12.292;2023-04-15T12:58:21;8.50;99.90
1800;DHT22;919;48.274;12.292;2023-04-15T13:00:48;8.40;99.90
1800;DHT22;919;48.274;12.292;2023-04-15T13:03:15;8.40;99.90
1800;DHT22;919;48.274;12.292;2023-04-15T13:05:42;8.50;99.90
1800;DHT22;919;48.274;12.292;2023-04-15T13:08:09;8.40;99.90
1800;DHT22;919;48.274;12.292;2023-04-15T13:10:35;8.40;99.90
1800;DHT22;919;48.274;12.292;2023-04-15T13:13:03;8.40;99.90
1800;DHT22;919;48.274;12.292;2023-04-15T13:15:31;8.40;99.90
1800;DHT22;919;48.274;12.292;2023-04-15T13:17:58;8.40;99.90
1800;DHT22;919;48.274;12.292;2023-04-15T13:20:25;8.40;99.90
1800;DHT22;919;48.274;12.292;2023-04-15T13:22:52;8.30;99.90
1800;DHT22;919;48.274;12.292;2023-04-15T13:25:19;8.30;99.90
1800;DHT22;919;48.274;12.292;2023-04-15T13:27:46;8.20;99.90
1800;DHT22;919;48.274;12.292;2023-04-15T13:30:13;8.10;99.90
1800;DHT22;919;48.274;12.292;2023-04-15T13:32:41;8.10;99.90
1800;DHT22;919;48.274;12.292;2023-04-15T13:35:08;8.10;99.90
1800;DHT22;919;48.274;12.292;2023-04-15T13:37:35;8.10;99.90
1800;DHT22;919;48.274;12.292;2023-04-15T13:40:02;8.10;99.90
1800;DHT22;919;48.274;12.292;2023-04-15T13:42:31;8.10;99.90
1800;DHT22;919;48.274;12.292;2023-04-15T13:44:58;8.20;99.90
1800;DHT22;919;48.274;12.292;2023-04-15T13:47:25;8.20;99.90
1800;DHT22;919;48.274;12.292;2023-04-15T13:49:53;8.20;99.90
1800;DHT22;919;48.274;12.292;2023-04-15T13:52:21;8.20;99.90
1800;DHT22;919;48.274;12.292;2023-04-15T13:54:47;8.20;99.90
1800;DHT22;919;48.274;12.292;2023-04-15T13:57:14;8.20;99.90
1800;DHT22;919;48.274;12.292;2023-04-15T13:59:41;8.20;99.90
1800;DHT22;919;48.274;12.292;2023-04-15T14:02:08;8.20;99.90
1800;DHT22;919;48.274;12.292;2023-04-15T14:04:35;8.20;99.90
1800;DHT22;919;48.274;12.292;2023-04-15T14:07:03;8.30;99.90
1800;DHT22;919;48.274;12.292;2023-04-15T14:09:30;8.30;99.90
1800;DHT22;919;48.274;12.292;2023-04-15T14:11:57;8.30;99.90
1800;DHT22;919;48.274;12.292;2023-04-15T14:14:25;8.30;99.90
1800;DHT22;919;48.274;12.292;2023-04-15T14:16:54;8.30;99.90
1800;DHT22;919;48.274;12.292;2023-04-15T14:19:21;8.30;99.90
1800;DHT22;919;48.274;12.292;2023-04-15T14:21:49;8.30;99.90
1800;DHT22;919;48.274;12.292;2023-04-15T14:24:17;8.30;99.90
1800;DHT22;919;48.274;12.292;2023-04-15T14:26:44;8.30;99.90
1800;DHT22;919;48.274;12.292;2023-04-15T14:29:11;8.40;99.90
1800;DHT22;919;48.274;12.292;2023-04-15T14:31:38;8.40;99.90
1800;DHT22;919;48.274;12.292;2023-04-15T14:34:05;8.40;99.90
1800;DHT22;919;48.274;12.292;2023-04-15T14:36:31;8.50;99.90
1800;DHT22;919;48.274;12.292;2023-04-15T14:38:58;8.50;99.90
1800;DHT22;919;48.274;12.292;2023-04-15T14:41:26;8.40;99.90
1800;DHT22;919;48.274;12.292;2023-04-15T14:43:53;8.40;99.90
1800;DHT22;919;48.274;12.292;2023-04-15T14:46:21;8.40;99.90
1800;DHT22;919;48.274;12.292;2023-04-15T14:48:48;8.40;99.90
1800;DHT22;919;48.274;12.292;2023-04-15T14:51:15;8.40;99.90
1800;DHT22;919;48.274;12.292;2023-04-15T14:53:42;8.40;99.90
1800;DHT22;919;48.274;12.292;2023-04-15T14:56:09;8.40;99.90
1800;DHT22;919;48.274;12.292;2023-04-15T14:58:37;8.40;99.90
1800;DHT22;919;48.274;12.292;2023-04-15T15:01:04;8.40;99.90
1800;DHT22;919;48.274;12.292;2023-04-15T15:03:32;8.40;99.90
1800;DHT22;919;48.274;12.292;2023-04-15T15:05:59;8.40;99.90
1800;DHT22;919;48.274;12.292;2023-04-15T15:08:26;8.30;99.90
1800;DHT22;919;48.274;12.292;2023-04-15T15:10:52;8.30;99.90
1800;DHT22;919;48.274;12.292;2023-04-15T15:13:19;8.30;99.90
1800;DHT22;919;48.274;12.292;2023-04-15T15:15:47;8.30;99.90
1800;DHT22;919;48.274;12.292;2023-04-15T15:18:14;8.30;99.90
1800;DHT22;919;48.274;12.292;2023-04-15T15:20:43;8.20;99.90
1800;DHT22;919;48.274;12.292;2023-04-15T15:23:12;8.20;99.90
1800;DHT22;919;48.274;12.292;2023-04-15T15:25:39;8.20;99.90
1800;DHT22;919;48.274;12.292;2023-04-15T15:28:06;8.10;99.90
1800;DHT22;919;48.274;12.292;2023-04-15T15:30:33;8.10;99.90
1800;DHT22;919;48.274;12.292;2023-04-15T15:33:01;8.20;99.90
1800;DHT22;919;48.274;12.292;2023-04-15T15:35:28;8.10;99.90
1800;DHT22;919;48.274;12.292;2023-04-15T15:37:54;8.20;99.90
1800;DHT22;919;48.274;12.292;2023-04-15T15:40:21;8.20;99.90
1800;DHT22;919;48.274;12.292;2023-04-15T15:42:48;8.30;99.90
1800;DHT22;919;48.274;12.292;2023-04-15T15:45:15;8.40;99.90
1800;DHT22;919;48.274;12.292;2023-04-15T15:47:43;8.40;99.90
1800;DHT22;919;48.274;12.292;2023-04-15T15:50:12;8.30;99.90
1800;DHT22;919;48.274;12.292;2023-04-15T15:52:39;8.30;99.90
1800;DHT22;919;48.274;12.292;2023-04-15T15:55:06;8.30;99.90
1800;DHT22;919;48.274;12.292;2023-04-15T15:57:33;8.20;99.90
1800;DHT22;919;48.274;12.292;2023-04-15T16:00:01;8.10;99.90
1800;DHT22;919;48.274;12.292;2023-04-15T16:02:28;8.10;99.90
1800;DHT22;919;48.274;12.292;2023-04-15T16:04:56;8.00;99.90
1800;DHT22;919;48.274;12.292;2023-04-15T16:07:24;7.90;99.90
1800;DHT22;919;48.274;12.292;2023-04-15T16:09:51;7.90;99.90
1800;DHT22;919;48.274;12.292;2023-04-15T16:12:18;7.90;99.90
1800;DHT22;919;48.274;12.292;2023-04-15T16:14:45;7.90;99.90
1800;DHT22;919;48.274;12.292;2023-04-15T16:17:12;7.90;99.90
1800;DHT22;919;48.274;12.292;2023-04-15T16:19:38;7.90;99.90